createdAt,value
2017-12-02T00:00:07.581Z,85.48
2017-12-02T00:02:38.578Z,85.50
2017-12-02T00:05:07.728Z,85.62
2017-12-02T00:07:37.686Z,85.74
2017-12-02T00:10:07.558Z,85.28
2017-12-02T00:12:37.513Z,85.41
2017-12-02T00:15:06.819Z,85.64
2017-12-02T00:17:35.955Z,85.61
2017-12-02T00:20:05.153Z,85.62
2017-12-02T00:22:35.475Z,85.84
2017-12-02T00:25:05.593Z,85.76
2017-12-02T00:27:37.626Z,85.52
2017-12-02T00:30:06.614Z,86.00
2017-12-02T00:32:35.751Z,85.85
2017-12-02T00:35:05.807Z,85.69
2017-12-02T00:37:34.720Z,85.99
2017-12-02T00:40:03.672Z,86.38
2017-12-02T00:42:34.616Z,86.30
2017-12-02T00:45:03.652Z,85.76
2017-12-02T00:47:32.555Z,86.21
2017-12-02T00:50:01.588Z,86.02
2017-12-02T00:52:30.510Z,85.35
2017-12-02T00:54:59.370Z,85.68
2017-12-02T00:57:28.359Z,85.83
2017-12-02T00:59:57.330Z,85.79
2017-12-02T01:02:26.281Z,85.57
2017-12-02T01:04:56.300Z,86.09
2017-12-02T01:07:25.115Z,85.98
2017-12-02T01:09:54.054Z,86.50
2017-12-02T01:12:24.051Z,86.20
2017-12-02T01:14:52.882Z,86.83
2017-12-02T01:17:21.777Z,86.72
2017-12-02T01:19:55.996Z,86.92
2017-12-02T01:22:24.854Z,87.26
2017-12-02T01:24:53.737Z,87.16
2017-12-02T01:27:22.650Z,87.03
2017-12-02T01:29:51.474Z,86.95
2017-12-02T01:32:20.602Z,86.84
2017-12-02T01:34:51.730Z,86.70
2017-12-02T01:37:20.802Z,86.53
2017-12-02T01:39:50.736Z,86.45
2017-12-02T01:42:20.675Z,86.48
2017-12-02T01:44:49.617Z,86.48
2017-12-02T01:47:18.660Z,86.43
2017-12-02T01:49:47.856Z,86.09
2017-12-02T01:52:22.756Z,85.69
2017-12-02T01:54:51.847Z,85.61
2017-12-02T01:57:20.842Z,85.55
2017-12-02T01:59:49.857Z,85.33
2017-12-02T02:02:18.879Z,85.37
2017-12-02T02:04:47.865Z,85.49
2017-12-02T02:07:16.955Z,85.21
2017-12-02T02:09:47.160Z,85.02
2017-12-02T02:12:19.968Z,85.35
2017-12-02T02:14:54.959Z,85.29
2017-12-02T02:17:24.975Z,85.05
2017-12-02T02:19:55.638Z,85.08
2017-12-02T02:22:24.544Z,85.27
2017-12-02T02:24:53.786Z,85.49
2017-12-02T02:27:23.084Z,85.28
2017-12-02T02:29:52.099Z,85.62
2017-12-02T02:32:22.011Z,85.62
2017-12-02T02:34:53.092Z,85.47
2017-12-02T02:37:22.152Z,85.31
2017-12-02T02:39:52.118Z,85.06
2017-12-02T02:42:21.203Z,85.12
2017-12-02T02:44:50.202Z,85.07
2017-12-02T02:47:19.740Z,85.03
2017-12-02T02:49:50.605Z,84.96
2017-12-02T02:52:19.690Z,84.80
2017-12-02T02:54:49.507Z,85.03
2017-12-02T02:57:21.239Z,84.81
2017-12-02T02:59:50.404Z,84.94
2017-12-02T03:02:19.462Z,85.36
2017-12-02T03:04:50.190Z,85.22
2017-12-02T03:07:19.218Z,85.28
2017-12-02T03:09:48.417Z,85.13
2017-12-02T03:12:20.865Z,85.30
2017-12-02T03:14:51.848Z,84.88
2017-12-02T03:17:21.196Z,84.88
2017-12-02T03:19:51.189Z,84.90
2017-12-02T03:22:20.313Z,85.00
2017-12-02T03:24:50.452Z,84.92
2017-12-02T03:27:21.623Z,84.82
2017-12-02T03:29:50.772Z,84.65
2017-12-02T03:32:19.887Z,84.92
2017-12-02T03:34:51.937Z,85.09
2017-12-02T03:37:21.222Z,84.86
2017-12-02T03:39:51.026Z,85.17
2017-12-02T03:42:20.350Z,85.48
2017-12-02T03:44:49.484Z,85.55
2017-12-02T03:47:19.520Z,85.49
2017-12-02T03:52:24.026Z,85.26
2017-12-02T03:54:54.150Z,85.31
2017-12-02T03:57:24.209Z,85.44
2017-12-02T03:59:53.608Z,85.33
2017-12-02T04:02:22.639Z,85.45
2017-12-02T04:04:53.397Z,85.58
2017-12-02T04:07:23.437Z,85.42
2017-12-02T04:09:52.630Z,85.76
2017-12-02T04:12:21.953Z,85.72
2017-12-02T04:14:51.023Z,85.94
2017-12-02T04:17:21.011Z,85.80
2017-12-02T04:19:51.948Z,86.06
2017-12-02T04:22:21.228Z,86.18
2017-12-02T04:24:51.171Z,86.18
2017-12-02T04:27:20.513Z,85.79
2017-12-02T04:29:49.819Z,85.78
2017-12-02T04:32:19.080Z,85.58
2017-12-02T04:34:48.394Z,85.94
2017-12-02T04:37:18.435Z,86.03
2017-12-02T04:39:47.625Z,85.90
2017-12-02T04:42:16.777Z,86.10
2017-12-02T04:44:45.977Z,86.66
2017-12-02T04:47:15.159Z,86.77
2017-12-02T04:49:44.475Z,86.55
2017-12-02T04:52:14.594Z,86.55
2017-12-02T04:54:46.197Z,86.70
2017-12-02T04:57:15.286Z,86.78
2017-12-02T04:59:44.281Z,86.95
2017-12-02T05:02:16.884Z,86.93
2017-12-02T05:04:46.837Z,87.01
2017-12-02T05:07:16.142Z,86.68
2017-12-02T05:09:45.182Z,87.06
2017-12-02T05:12:14.175Z,86.94
2017-12-02T05:14:43.213Z,86.48
2017-12-02T05:17:13.947Z,86.58
2017-12-02T05:19:42.852Z,86.42
2017-12-02T05:22:11.819Z,86.67
2017-12-02T05:24:43.581Z,85.89
2017-12-02T05:27:12.558Z,86.09
2017-12-02T05:29:41.665Z,85.90
2017-12-02T05:32:10.700Z,85.71
2017-12-02T05:34:39.627Z,84.85
2017-12-02T05:37:08.694Z,84.53
2017-12-02T05:39:37.929Z,84.31
2017-12-02T05:42:06.866Z,84.05
2017-12-02T05:44:35.837Z,84.12
2017-12-02T05:47:04.823Z,83.92
2017-12-02T05:49:33.840Z,83.93
2017-12-02T05:52:02.792Z,83.68
2017-12-02T05:54:33.922Z,83.80
2017-12-02T05:57:02.938Z,83.39
2017-12-02T05:59:31.990Z,83.24
2017-12-02T06:02:01.875Z,83.21
2017-12-02T06:04:30.932Z,83.51
2017-12-02T06:06:59.880Z,83.35
2017-12-02T06:09:29.134Z,83.59
2017-12-02T06:11:58.143Z,83.50
2017-12-02T06:14:28.673Z,83.36
2017-12-02T06:16:57.728Z,82.77
2017-12-02T06:19:26.712Z,82.73
2017-12-02T06:21:55.732Z,82.38
2017-12-02T06:24:24.862Z,81.74
2017-12-02T06:26:53.945Z,81.59
2017-12-02T06:29:22.898Z,81.78
2017-12-02T06:31:52.061Z,81.23
2017-12-02T06:34:21.105Z,80.61
2017-12-02T06:36:50.095Z,80.53
2017-12-02T06:39:19.071Z,80.19
2017-12-02T06:41:48.105Z,80.25
2017-12-02T06:44:17.194Z,80.65
2017-12-02T06:46:47.035Z,80.73
2017-12-02T06:49:16.009Z,80.28
2017-12-02T06:51:45.044Z,79.53
2017-12-02T06:56:48.588Z,78.40
2017-12-02T06:59:17.576Z,78.01
2017-12-02T07:01:46.613Z,77.75
2017-12-02T07:04:15.767Z,77.49
2017-12-02T07:06:44.804Z,76.98
2017-12-02T07:09:13.913Z,76.45
2017-12-02T07:11:43.006Z,75.69
2017-12-02T07:14:12.088Z,75.82
2017-12-02T07:16:43.033Z,76.16
2017-12-02T07:19:12.042Z,76.38
2017-12-02T07:21:41.039Z,76.90
2017-12-02T07:24:10.074Z,76.99
2017-12-02T07:26:39.226Z,77.35
2017-12-02T07:29:10.267Z,77.53
2017-12-02T07:31:39.426Z,77.07
2017-12-02T07:34:09.490Z,76.80
2017-12-02T07:36:38.515Z,76.68
2017-12-02T07:39:07.815Z,76.77
2017-12-02T07:41:36.920Z,76.50
2017-12-02T07:44:06.997Z,76.05
2017-12-02T07:46:36.091Z,75.63
2017-12-02T07:49:11.949Z,74.25
2017-12-02T07:51:41.148Z,74.28
2017-12-02T07:54:11.876Z,74.13
2017-12-02T07:56:42.002Z,74.20
2017-12-02T07:59:12.105Z,74.68
2017-12-02T08:01:41.261Z,75.17
2017-12-02T08:04:12.316Z,75.74
2017-12-02T08:06:41.497Z,75.41
2017-12-02T08:09:11.593Z,75.56
2017-12-02T08:11:41.799Z,75.31
2017-12-02T08:14:10.882Z,75.56
2017-12-02T08:16:39.934Z,75.64
2017-12-02T08:19:09.950Z,75.77
2017-12-02T08:21:38.919Z,75.10
2017-12-02T08:24:07.876Z,74.20
2017-12-02T08:26:37.661Z,73.79
2017-12-02T08:29:06.655Z,73.01
2017-12-02T08:31:35.617Z,72.72
2017-12-02T08:34:04.711Z,71.83
2017-12-02T08:36:33.734Z,71.86
2017-12-02T08:39:02.732Z,71.59
2017-12-02T08:41:32.753Z,71.85
2017-12-02T08:44:01.793Z,71.62
2017-12-02T08:46:30.805Z,71.67
2017-12-02T08:49:00.950Z,72.10
2017-12-02T08:51:29.920Z,73.30
2017-12-02T08:53:58.814Z,72.86
2017-12-02T08:56:27.792Z,73.27
2017-12-02T08:58:56.802Z,71.82
2017-12-02T09:01:25.772Z,70.89
2017-12-02T09:03:54.853Z,70.71
2017-12-02T09:06:23.849Z,70.10
2017-12-02T09:08:52.755Z,70.15
2017-12-02T09:13:56.574Z,69.30
2017-12-02T09:16:25.602Z,69.34
2017-12-02T09:18:57.084Z,69.10
2017-12-02T09:21:26.087Z,70.53
2017-12-02T09:23:55.042Z,70.68
2017-12-02T09:26:25.192Z,71.84
2017-12-02T09:28:54.155Z,71.42
2017-12-02T09:31:23.068Z,72.18
2017-12-02T09:33:52.070Z,73.25
2017-12-02T09:36:21.054Z,73.48
2017-12-02T09:38:50.029Z,73.51
2017-12-02T09:41:20.908Z,73.80
2017-12-02T09:43:50.059Z,74.11
2017-12-02T09:46:21.398Z,74.01
2017-12-02T09:54:03.415Z,71.65
2017-12-02T09:56:40.285Z,71.40
2017-12-02T09:59:09.489Z,70.47
2017-12-02T10:01:38.730Z,70.23
2017-12-02T10:04:08.287Z,70.07
2017-12-02T10:06:38.307Z,69.46
2017-12-02T10:09:07.775Z,69.12
2017-12-02T10:11:37.182Z,69.62
2017-12-02T10:16:41.287Z,69.94
2017-12-02T10:19:10.733Z,70.67
2017-12-02T10:21:41.144Z,71.47
2017-12-02T10:24:10.456Z,71.17
2017-12-02T10:26:40.844Z,72.21
2017-12-02T10:29:10.332Z,72.64
2017-12-02T10:31:41.011Z,72.14
2017-12-02T10:34:10.424Z,71.50
2017-12-02T10:36:41.323Z,72.15
2017-12-02T10:39:10.815Z,72.10
2017-12-02T10:41:40.116Z,72.14
2017-12-02T10:46:44.021Z,72.18
2017-12-02T10:49:13.270Z,71.01
2017-12-02T10:51:43.824Z,69.24
2017-12-02T10:54:12.919Z,68.37
2017-12-02T10:56:43.658Z,67.44
2017-12-02T10:59:12.979Z,67.46
2017-12-02T11:01:43.083Z,66.86
2017-12-02T11:04:12.122Z,65.94
2017-12-02T11:06:41.108Z,64.68
2017-12-02T11:09:10.157Z,63.85
2017-12-02T11:11:39.154Z,63.20
2017-12-02T11:14:09.007Z,62.19
2017-12-02T11:16:38.306Z,61.72
2017-12-02T11:19:07.402Z,62.32
2017-12-02T11:21:39.019Z,62.28
2017-12-02T11:24:09.244Z,62.10
2017-12-02T11:26:38.520Z,62.41
2017-12-02T11:29:07.711Z,62.78
2017-12-02T11:31:38.038Z,63.38
2017-12-02T11:34:10.908Z,64.39
2017-12-02T11:36:40.434Z,65.24
2017-12-02T11:39:10.165Z,65.70
2017-12-02T11:41:39.695Z,66.22
2017-12-02T11:44:09.344Z,66.20
2017-12-02T11:46:38.861Z,66.39
2017-12-02T11:51:44.700Z,68.10
2017-12-02T11:54:13.876Z,68.59
2017-12-02T11:56:43.437Z,68.82
2017-12-02T11:59:15.166Z,69.30
2017-12-02T12:01:46.020Z,69.46
2017-12-02T12:04:15.601Z,70.42
2017-12-02T12:06:45.257Z,71.11
2017-12-02T12:09:14.717Z,71.50
2017-12-02T12:11:43.781Z,71.24
2017-12-02T12:14:13.300Z,72.87
2017-12-02T12:16:44.587Z,72.83
2017-12-02T12:19:15.505Z,73.58
2017-12-02T12:21:44.727Z,74.06
2017-12-02T12:24:14.128Z,74.23
2017-12-02T12:26:43.368Z,74.17
2017-12-02T12:29:12.667Z,74.33
2017-12-02T12:31:42.646Z,73.93
2017-12-02T12:34:12.107Z,74.28
2017-12-02T12:36:41.239Z,74.55
2017-12-02T12:39:12.227Z,74.06
2017-12-02T12:41:41.365Z,73.63
2017-12-02T12:44:12.470Z,74.35
2017-12-02T12:46:42.738Z,74.45
2017-12-02T12:49:11.988Z,74.84
2017-12-02T12:51:43.208Z,74.59
2017-12-02T12:54:12.539Z,74.57
2017-12-02T12:56:41.884Z,74.40
2017-12-02T12:59:12.732Z,74.05
2017-12-02T13:01:42.269Z,74.38
2017-12-02T13:04:11.535Z,74.62
2017-12-02T13:06:41.798Z,74.72
2017-12-02T13:09:12.294Z,73.92
2017-12-02T13:11:41.453Z,74.27
2017-12-02T13:14:10.555Z,74.26
2017-12-02T13:16:40.329Z,74.79
2017-12-02T13:19:09.422Z,74.81
2017-12-02T13:21:38.472Z,75.04
2017-12-02T13:24:07.461Z,75.24
2017-12-02T13:26:36.717Z,75.50
2017-12-02T13:29:06.892Z,75.77
2017-12-02T13:31:35.796Z,76.04
2017-12-02T13:34:04.741Z,76.21
2017-12-02T13:36:33.887Z,76.31
2017-12-02T13:39:04.477Z,77.30
2017-12-02T13:41:36.712Z,78.49
2017-12-02T13:44:06.146Z,79.35
2017-12-02T13:46:36.231Z,79.26
2017-12-02T13:49:07.547Z,78.97
2017-12-02T13:51:38.065Z,79.48
2017-12-02T13:54:07.525Z,79.49
2017-12-02T13:56:38.398Z,80.85
2017-12-02T13:59:09.125Z,82.39
2017-12-02T14:01:38.368Z,82.92
2017-12-02T14:04:07.943Z,83.34
2017-12-02T14:06:37.268Z,83.40
2017-12-02T14:09:06.955Z,84.09
2017-12-02T14:11:38.663Z,84.38
2017-12-02T14:14:09.548Z,83.94
2017-12-02T14:16:38.635Z,84.16
2017-12-02T14:19:08.216Z,84.57
2017-12-02T14:21:38.333Z,84.07
2017-12-02T14:24:07.874Z,83.68
2017-12-02T14:26:38.497Z,83.59
2017-12-02T14:29:08.635Z,83.56
2017-12-02T14:31:38.150Z,83.53
2017-12-02T14:34:09.384Z,83.08
2017-12-02T14:36:38.746Z,83.22
2017-12-02T14:39:07.783Z,83.62
2017-12-02T14:41:37.399Z,83.89
2017-12-02T14:44:17.981Z,85.25
2017-12-02T14:46:50.394Z,86.88
2017-12-02T14:49:19.834Z,87.48
2017-12-02T14:51:48.991Z,87.58
2017-12-02T14:54:20.804Z,88.23
2017-12-02T14:56:50.083Z,88.74
2017-12-02T14:59:19.291Z,89.09
2017-12-02T15:01:50.639Z,88.97
2017-12-02T15:04:19.609Z,88.91
2017-12-02T15:06:48.727Z,88.79
2017-12-02T15:09:18.341Z,88.71
2017-12-02T15:11:48.367Z,88.99
2017-12-02T15:14:17.271Z,89.95
2017-12-02T15:16:46.720Z,90.20
2017-12-02T15:19:15.653Z,90.28
2017-12-02T15:21:46.132Z,90.26
2017-12-02T15:26:50.003Z,89.85
2017-12-02T15:29:19.679Z,89.88
2017-12-02T15:31:50.118Z,89.66
2017-12-02T15:34:19.590Z,89.17
2017-12-02T15:36:49.130Z,88.45
2017-12-02T15:39:19.320Z,88.27
2017-12-02T15:41:48.520Z,87.74
2017-12-02T15:44:18.044Z,87.82
2017-12-02T15:46:47.629Z,88.08
2017-12-02T15:49:16.876Z,88.08
2017-12-02T15:51:46.090Z,88.28
2017-12-02T15:54:15.336Z,88.40
2017-12-02T15:56:44.558Z,88.90
2017-12-02T15:59:14.956Z,88.67
2017-12-02T16:01:44.785Z,88.46
2017-12-02T16:04:14.350Z,88.24
2017-12-02T16:09:19.789Z,87.70
2017-12-02T16:11:49.525Z,87.63
2017-12-02T16:14:19.660Z,87.62
2017-12-02T16:16:49.125Z,87.84
2017-12-02T16:19:18.489Z,87.66
2017-12-02T16:21:49.795Z,88.19
2017-12-02T16:24:19.821Z,88.88
2017-12-02T16:26:49.359Z,88.86
2017-12-02T16:29:18.924Z,87.75
2017-12-02T16:31:48.462Z,86.55
2017-12-02T16:34:17.663Z,86.23
2017-12-02T16:36:47.828Z,86.32
2017-12-02T16:39:17.798Z,86.58
2017-12-02T16:41:47.565Z,87.02
2017-12-02T16:44:16.908Z,87.82
2017-12-02T16:46:46.298Z,88.42
2017-12-02T16:49:16.493Z,88.38
2017-12-02T16:51:47.694Z,88.42
2017-12-02T16:54:17.981Z,88.33
2017-12-02T16:56:47.610Z,87.55
2017-12-02T16:59:19.508Z,87.13
2017-12-02T17:01:48.721Z,86.62
2017-12-02T17:04:18.293Z,88.75
2017-12-02T17:06:49.695Z,88.86
2017-12-02T17:09:19.589Z,88.24
2017-12-02T17:11:48.765Z,88.63
2017-12-02T17:14:18.157Z,88.73
2017-12-02T17:16:47.500Z,88.81
2017-12-02T17:19:17.106Z,88.89
2017-12-02T17:21:46.292Z,88.77
2017-12-02T17:24:15.531Z,88.27
2017-12-02T17:26:45.266Z,88.07
2017-12-02T17:29:16.368Z,88.05
2017-12-02T17:31:46.864Z,87.98
2017-12-02T17:36:54.924Z,88.33
2017-12-02T17:39:24.365Z,88.03
2017-12-02T17:44:30.240Z,88.00
2017-12-02T17:46:59.867Z,88.22
2017-12-02T17:49:30.209Z,88.59
2017-12-02T17:51:59.359Z,87.95
2017-12-02T17:54:29.892Z,88.05
2017-12-02T17:57:00.898Z,88.10
2017-12-02T17:59:29.885Z,87.94
2017-12-02T18:01:58.926Z,88.13
2017-12-02T18:04:28.777Z,88.10
2017-12-02T18:06:57.791Z,88.03
2017-12-02T18:09:27.560Z,87.82
2017-12-02T18:11:57.185Z,85.22
2017-12-02T18:14:27.022Z,83.96
2017-12-02T18:16:57.138Z,83.99
2017-12-02T18:22:01.059Z,84.06
2017-12-02T18:24:30.926Z,83.59
2017-12-02T18:27:00.284Z,84.17
2017-12-02T18:29:29.268Z,83.85
2017-12-02T18:31:58.382Z,84.19
2017-12-02T18:34:27.764Z,85.12
2017-12-02T18:36:57.283Z,85.29
2017-12-02T18:39:26.653Z,85.35
2017-12-02T18:42:00.294Z,86.22
2017-12-02T18:44:31.597Z,86.19
2017-12-02T18:47:02.716Z,85.15
2017-12-02T18:49:31.617Z,85.62
2017-12-02T18:52:02.603Z,85.63
2017-12-02T18:54:32.611Z,85.20
2017-12-02T18:57:02.338Z,85.47
2017-12-02T18:59:37.158Z,85.45
2017-12-02T19:02:06.265Z,86.21
2017-12-02T19:04:36.168Z,87.29
2017-12-02T19:07:06.145Z,86.23
2017-12-02T19:09:35.349Z,86.86
2017-12-02T19:12:04.414Z,87.01
2017-12-02T19:14:35.892Z,87.37
2017-12-02T19:17:05.093Z,87.98
2017-12-02T19:19:34.187Z,87.45
2017-12-02T19:22:05.021Z,87.92
2017-12-02T19:24:34.314Z,87.96
2017-12-02T19:27:04.441Z,87.86
2017-12-02T19:29:33.474Z,87.91
2017-12-02T19:32:02.564Z,87.89
2017-12-02T19:34:31.613Z,88.04
2017-12-02T19:37:02.702Z,88.09
2017-12-02T19:39:31.864Z,88.05
2017-12-02T19:42:01.108Z,87.48
2017-12-02T19:47:04.122Z,85.95
2017-12-02T19:49:33.129Z,86.08
2017-12-02T19:52:02.299Z,85.96
2017-12-02T19:54:32.380Z,86.23
2017-12-02T19:57:01.720Z,86.49
2017-12-02T19:59:30.877Z,86.75
2017-12-02T20:02:00.940Z,86.25
2017-12-02T20:04:30.118Z,85.59
2017-12-02T20:06:59.258Z,86.94
2017-12-02T20:09:29.411Z,87.97
2017-12-02T20:11:58.780Z,88.13
2017-12-02T20:14:28.680Z,87.92
2017-12-02T20:17:00.387Z,87.08
2017-12-02T20:19:29.626Z,86.27
2017-12-02T20:21:59.655Z,86.25
2017-12-02T20:24:29.667Z,86.32
2017-12-02T20:26:58.862Z,86.29
2017-12-02T20:29:28.375Z,86.30
2017-12-02T20:31:59.981Z,86.48
2017-12-02T20:34:28.982Z,86.39
2017-12-02T20:36:58.380Z,86.55
2017-12-02T20:39:27.579Z,86.60
2017-12-02T20:41:56.544Z,87.09
2017-12-02T20:44:25.463Z,87.71
2017-12-02T20:46:54.557Z,88.93
2017-12-02T20:49:23.553Z,88.40
2017-12-02T20:51:53.367Z,88.42
2017-12-02T20:56:59.435Z,87.87
2017-12-02T20:59:28.558Z,88.22
2017-12-02T21:01:58.761Z,88.63
2017-12-02T21:04:27.751Z,88.26
2017-12-02T21:06:57.603Z,87.48
2017-12-02T21:09:27.991Z,87.41
2017-12-02T21:12:00.063Z,87.71
2017-12-02T21:14:29.985Z,87.53
2017-12-02T21:16:58.963Z,88.43
2017-12-02T21:22:02.875Z,88.48
2017-12-02T21:24:32.869Z,88.13
2017-12-02T21:27:03.788Z,87.59
2017-12-02T21:29:33.009Z,87.27
2017-12-02T21:32:02.748Z,86.66
2017-12-02T21:34:33.157Z,86.88
2017-12-02T21:37:02.381Z,86.27
2017-12-02T21:39:32.175Z,86.00
2017-12-02T21:42:01.292Z,88.44
2017-12-02T21:44:30.392Z,88.32
2017-12-02T21:47:01.541Z,84.36
2017-12-02T21:49:34.625Z,84.51
2017-12-02T21:52:03.822Z,85.33
2017-12-02T21:54:33.125Z,85.24
2017-12-02T21:57:03.194Z,84.59
2017-12-02T21:59:32.271Z,84.23
2017-12-02T22:02:07.101Z,84.33
2017-12-02T22:04:37.189Z,84.49
2017-12-02T22:07:06.406Z,84.43
2017-12-02T22:09:35.864Z,82.98
2017-12-02T22:12:04.782Z,82.59
2017-12-02T22:14:34.798Z,83.72
2017-12-02T22:17:04.048Z,84.20
2017-12-02T22:19:33.254Z,84.34
2017-12-02T22:22:02.395Z,84.45
2017-12-02T22:24:32.469Z,84.54
2017-12-02T22:27:02.126Z,84.70
2017-12-02T22:29:31.049Z,84.66
2017-12-02T22:32:06.766Z,84.56
2017-12-02T22:34:36.819Z,84.58
2017-12-02T22:37:06.697Z,84.41
2017-12-02T22:39:35.732Z,84.70
2017-12-02T22:42:05.597Z,84.41
2017-12-02T22:44:37.557Z,84.62
2017-12-02T22:47:07.521Z,85.27
2017-12-02T22:56:25.481Z,86.61
2017-12-02T22:58:54.487Z,86.42
2017-12-02T23:01:23.912Z,86.69
2017-12-02T23:03:52.964Z,86.24
2017-12-02T23:06:23.232Z,85.98
2017-12-02T23:08:52.234Z,86.10
2017-12-02T23:11:21.418Z,85.21
2017-12-02T23:13:50.453Z,84.73
2017-12-02T23:16:19.665Z,85.28
2017-12-02T23:18:49.004Z,85.54
2017-12-02T23:21:18.065Z,86.04
2017-12-02T23:23:47.179Z,86.58
2017-12-02T23:26:16.504Z,87.51
2017-12-02T23:28:46.296Z,87.52
2017-12-02T23:31:15.328Z,87.25
2017-12-02T23:33:46.364Z,86.64
2017-12-02T23:36:15.564Z,87.30
2017-12-02T23:38:44.555Z,87.33
2017-12-02T23:41:13.639Z,87.22
2017-12-02T23:43:42.723Z,87.12
2017-12-02T23:46:11.692Z,87.59
2017-12-02T23:48:43.973Z,87.36
2017-12-02T23:51:13.301Z,87.32
2017-12-02T23:53:43.279Z,87.25
2017-12-02T23:56:13.296Z,87.44
2017-12-02T23:58:42.385Z,86.88
